Time;durP1;ratioP1;P1;durP2;ratioP2;P2;SDS_P1;SDS_P2;PMS_P1;PMS_P2;Temp;Humidity;BMP_temperature;BMP_pressure;BME280_temperature;BME280_humidity;BME280_pressure;Samples;Min_cycle;Max_cycle;Signal;HPM_P1;HPM_P2
2022/07/19 00:00:30;;;;;;;4.50;2.58;;;;;;;;;;4361752;32;20643;-83
2022/07/19 00:02:56;;;;;;;5.07;2.62;;;;;;;;;;4361552;32;20647;-84
2022/07/19 00:05:22;;;;;;;4.45;2.87;;;;;;;;;;4361427;32;20198;-84
2022/07/19 00:07:48;;;;;;;4.20;2.25;;;;;;;;;;4361350;32;20194;-82
2022/07/19 00:10:16;;;;;;;7.82;3.28;;;;;;;;;;4361517;32;20209;-84
2022/07/19 00:12:42;;;;;;;8.38;5.32;;;;;;;;;;4361535;32;20555;-84
2022/07/19 00:15:11;;;;;;;9.25;7.22;;;;;;;;;;4361253;32;20710;-85
2022/07/19 00:17:46;;;;;;;10.05;6.90;;;;;;;;;;4361811;32;20497;-84
2022/07/19 00:20:14;;;;;;;8.45;6.12;;;;;;;;;;4361769;32;20689;-84
2022/07/19 00:22:40;;;;;;;5.18;4.32;;;;;;;;;;4361303;32;20557;-83
2022/07/19 00:25:07;;;;;;;4.87;3.30;;;;;;;;;;4361163;32;20690;-83
2022/07/19 00:27:34;;;;;;;7.50;2.72;;;;;;;;;;4361299;32;20599;-83
2022/07/19 00:30:00;;;;;;;8.05;2.67;;;;;;;;;;4361541;32;20692;-82
2022/07/19 00:32:26;;;;;;;2.92;2.22;;;;;;;;;;4365395;32;20198;-83
2022/07/19 00:34:52;;;;;;;3.85;2.22;;;;;;;;;;4371830;32;20686;-84
2022/07/19 00:37:18;;;;;;;8.00;2.17;;;;;;;;;;4375251;32;20354;-84
2022/07/19 00:39:43;;;;;;;4.35;2.55;;;;;;;;;;4375529;32;20219;-81
2022/07/19 00:42:14;;;;;;;2.47;1.95;;;;;;;;;;4375623;32;20234;-85
2022/07/19 00:44:41;;;;;;;7.05;2.05;;;;;;;;;;4370761;32;20233;-86
2022/07/19 00:47:09;;;;;;;3.05;2.35;;;;;;;;;;4364240;32;20727;-84
2022/07/19 00:49:35;;;;;;;4.15;2.62;;;;;;;;;;4350831;32;20568;-85
2022/07/19 00:52:03;;;;;;;4.03;2.70;;;;;;;;;;4362923;32;20647;-85
2022/07/19 00:54:30;;;;;;;3.53;2.30;;;;;;;;;;4360711;32;20746;-85
2022/07/19 00:57:00;;;;;;;4.80;2.58;;;;;;;;;;4361653;32;20598;-84
2022/07/19 00:59:26;;;;;;;3.70;2.97;;;;;;;;;;4337237;32;20626;-84
2022/07/19 01:01:53;;;;;;;4.32;2.80;;;;;;;;;;4363831;32;20634;-86
2022/07/19 01:04:21;;;;;;;5.07;3.30;;;;;;;;;;4363061;32;20505;-85
2022/07/19 01:06:47;;;;;;;7.72;3.22;;;;;;;;;;4362973;32;20500;-85
2022/07/19 01:09:12;;;;;;;4.25;2.45;;;;;;;;;;4362084;32;20218;-84
2022/07/19 01:11:39;;;;;;;4.12;2.85;;;;;;;;;;4362443;32;20435;-83
2022/07/19 01:14:05;;;;;;;6.97;2.62;;;;;;;;;;4360496;32;20628;-84
2022/07/19 01:16:31;;;;;;;2.10;1.90;;;;;;;;;;4360747;32;20217;-84
2022/07/19 01:18:57;;;;;;;3.80;2.37;;;;;;;;;;4360453;32;20291;-85
2022/07/19 01:21:26;;;;;;;2.00;1.80;;;;;;;;;;4360567;32;20194;-84
2022/07/19 01:23:52;;;;;;;2.28;1.87;;;;;;;;;;4360256;32;20555;-84
2022/07/19 01:26:18;;;;;;;6.10;2.35;;;;;;;;;;4346895;32;20607;-84
2022/07/19 01:28:45;;;;;;;11.20;2.75;;;;;;;;;;4360290;32;20702;-84
2022/07/19 01:31:11;;;;;;;3.03;2.62;;;;;;;;;;4360264;32;20544;-85
2022/07/19 01:33:42;;;;;;;7.60;3.72;;;;;;;;;;4360255;32;20663;-83
2022/07/19 01:36:08;;;;;;;3.42;2.78;;;;;;;;;;4360218;32;20718;-84
2022/07/19 01:38:35;;;;;;;3.22;2.47;;;;;;;;;;4360018;32;20693;-81
2022/07/19 01:41:00;;;;;;;4.05;2.95;;;;;;;;;;4359967;32;20520;-83
2022/07/19 01:43:26;;;;;;;3.50;2.58;;;;;;;;;;4360095;32;20276;-82
2022/07/19 01:45:53;;;;;;;2.95;2.20;;;;;;;;;;4360322;32;20292;-82
2022/07/19 01:48:20;;;;;;;4.03;2.55;;;;;;;;;;4359738;32;20711;-83
2022/07/19 01:50:46;;;;;;;6.35;3.10;;;;;;;;;;4359932;32;20599;-85
2022/07/19 01:53:12;;;;;;;14.27;3.35;;;;;;;;;;4359962;32;20705;-80
2022/07/19 01:55:37;;;;;;;11.98;2.75;;;;;;;;;;4346367;32;20280;-84
2022/07/19 01:58:05;;;;;;;8.65;3.10;;;;;;;;;;4360087;32;20259;-84
2022/07/19 02:00:31;;;;;;;6.12;3.33;;;;;;;;;;4346928;32;20671;-82
2022/07/19 02:02:57;;;;;;;3.22;2.30;;;;;;;;;;4359418;32;20585;-80
2022/07/19 02:05:24;;;;;;;5.60;3.17;;;;;;;;;;4359720;32;20282;-81
2022/07/19 02:07:52;;;;;;;3.30;2.22;;;;;;;;;;4359511;32;20608;-80
2022/07/19 02:10:17;;;;;;;11.27;3.05;;;;;;;;;;4359791;32;20191;-82
2022/07/19 02:12:43;;;;;;;4.93;2.58;;;;;;;;;;4345702;32;20573;-83
2022/07/19 02:15:10;;;;;;;3.05;2.35;;;;;;;;;;4346169;32;20268;-84
2022/07/19 02:17:36;;;;;;;3.85;2.53;;;;;;;;;;4359702;32;20542;-82
2022/07/19 02:20:01;;;;;;;6.10;3.08;;;;;;;;;;4359483;32;20541;-81
2022/07/19 02:22:30;;;;;;;10.73;3.03;;;;;;;;;;4359626;32;20261;-81
2022/07/19 02:24:57;;;;;;;3.90;1.95;;;;;;;;;;4359390;32;20723;-81
2022/07/19 02:27:22;;;;;;;7.87;2.28;;;;;;;;;;4359313;32;20604;-80
2022/07/19 02:29:48;;;;;;;4.25;2.45;;;;;;;;;;4358947;32;20308;-81
2022/07/19 02:32:14;;;;;;;3.33;2.17;;;;;;;;;;4359349;32;20596;-83
2022/07/19 02:34:40;;;;;;;3.00;1.87;;;;;;;;;;4359219;32;20322;-82
2022/07/19 02:37:06;;;;;;;3.50;2.53;;;;;;;;;;4359268;32;20196;-84
2022/07/19 02:39:31;;;;;;;3.72;2.15;;;;;;;;;;4359200;32;20274;-83
2022/07/19 02:41:57;;;;;;;3.58;2.55;;;;;;;;;;4359230;32;20202;-85
2022/07/19 02:44:23;;;;;;;3.65;2.00;;;;;;;;;;4359244;32;20288;-85
2022/07/19 02:46:48;;;;;;;6.25;3.28;;;;;;;;;;4345850;32;20324;-83
2022/07/19 02:49:14;;;;;;;3.80;2.30;;;;;;;;;;4359104;32;20226;-81
2022/07/19 02:51:40;;;;;;;3.17;2.35;;;;;;;;;;4359338;32;20199;-85
2022/07/19 02:54:05;;;;;;;7.53;2.35;;;;;;;;;;4358853;32;20230;-85
2022/07/19 02:56:35;;;;;;;4.00;2.22;;;;;;;;;;4359120;32;20203;-84
2022/07/19 02:59:03;;;;;;;3.83;2.00;;;;;;;;;;4359262;32;20644;-84
2022/07/19 03:01:29;;;;;;;3.60;2.20;;;;;;;;;;4358946;32;20744;-84
2022/07/19 03:03:56;;;;;;;3.17;2.50;;;;;;;;;;4358848;32;20736;-84
2022/07/19 03:06:21;;;;;;;2.90;2.05;;;;;;;;;;4359079;32;20600;-83
2022/07/19 03:08:47;;;;;;;2.87;2.20;;;;;;;;;;4358954;32;20245;-85
2022/07/19 03:11:13;;;;;;;3.45;2.45;;;;;;;;;;4358976;32;20657;-84
2022/07/19 03:13:39;;;;;;;3.67;2.33;;;;;;;;;;4358738;32;20376;-84
2022/07/19 03:16:07;;;;;;;5.53;2.60;;;;;;;;;;4359061;32;20195;-85
2022/07/19 03:18:32;;;;;;;2.85;2.28;;;;;;;;;;4358883;32;20656;-85
2022/07/19 03:20:58;;;;;;;5.07;2.55;;;;;;;;;;4358959;32;20269;-81
2022/07/19 03:23:30;;;;;;;8.20;2.85;;;;;;;;;;4358793;32;20217;-81
2022/07/19 03:25:56;;;;;;;3.80;3.03;;;;;;;;;;4358984;33;20538;-82
2022/07/19 03:28:22;;;;;;;3.87;2.90;;;;;;;;;;4358763;33;20273;-84
2022/07/19 03:30:48;;;;;;;8.73;3.65;;;;;;;;;;4345330;33;20324;-82
2022/07/19 03:33:15;;;;;;;4.40;2.75;;;;;;;;;;4358519;33;20321;-86
2022/07/19 03:35:45;;;;;;;5.32;3.33;;;;;;;;;;4345506;33;20584;-82
2022/07/19 03:38:15;;;;;;;5.65;3.37;;;;;;;;;;4358845;33;20570;-83
2022/07/19 03:40:41;;;;;;;10.18;3.03;;;;;;;;;;4358728;33;20651;-81
2022/07/19 03:43:07;;;;;;;6.95;3.92;;;;;;;;;;4358871;33;20230;-84
2022/07/19 03:45:33;;;;;;;8.88;3.92;;;;;;;;;;4358991;33;20202;-83
2022/07/19 03:48:00;;;;;;;7.10;4.43;;;;;;;;;;4358547;33;20779;-81
2022/07/19 03:50:28;;;;;;;10.52;4.00;;;;;;;;;;4358613;33;20596;-82
2022/07/19 03:52:54;;;;;;;12.18;5.00;;;;;;;;;;4358469;33;20615;-81
2022/07/19 03:55:20;;;;;;;11.40;4.43;;;;;;;;;;4358615;33;20190;-83
2022/07/19 03:57:45;;;;;;;8.68;5.45;;;;;;;;;;4358425;33;20225;-84
2022/07/19 04:00:11;;;;;;;8.52;4.50;;;;;;;;;;4358724;33;20221;-83
2022/07/19 04:02:37;;;;;;;11.02;5.25;;;;;;;;;;4358709;33;20649;-84
2022/07/19 04:05:05;;;;;;;20.20;6.78;;;;;;;;;;4344978;33;20687;-83
2022/07/19 04:07:31;;;;;;;14.57;6.57;;;;;;;;;;4358577;33;20642;-84
2022/07/19 04:09:56;;;;;;;13.15;5.10;;;;;;;;;;4358260;33;20294;-84
2022/07/19 04:12:22;;;;;;;14.63;6.03;;;;;;;;;;4358523;33;20256;-84
2022/07/19 04:14:47;;;;;;;14.57;5.15;;;;;;;;;;4358475;33;20227;-82
2022/07/19 04:17:13;;;;;;;11.40;4.15;;;;;;;;;;4358580;33;20195;-83
2022/07/19 04:19:39;;;;;;;9.82;4.45;;;;;;;;;;4358421;33;20277;-83
2022/07/19 04:22:04;;;;;;;6.80;4.25;;;;;;;;;;4358659;33;20225;-83
2022/07/19 04:24:30;;;;;;;6.62;3.58;;;;;;;;;;4358343;33;20249;-83
2022/07/19 04:26:55;;;;;;;7.20;3.87;;;;;;;;;;4358570;33;20221;-85
2022/07/19 04:29:21;;;;;;;3.80;3.00;;;;;;;;;;4358162;33;20249;-84
2022/07/19 04:31:47;;;;;;;5.00;3.10;;;;;;;;;;4358472;33;20248;-85
2022/07/19 04:34:12;;;;;;;6.60;4.22;;;;;;;;;;4358548;32;20222;-85
2022/07/19 04:36:38;;;;;;;8.68;4.00;;;;;;;;;;4362197;32;20270;-85
2022/07/19 04:39:05;;;;;;;14.00;4.72;;;;;;;;;;4363783;32;20222;-80
2022/07/19 04:41:31;;;;;;;7.35;4.53;;;;;;;;;;4348065;32;20545;-83
2022/07/19 04:43:58;;;;;;;8.98;4.78;;;;;;;;;;4360826;32;20314;-84
2022/07/19 04:46:24;;;;;;;9.00;3.90;;;;;;;;;;4360822;32;20583;-82
2022/07/19 04:48:49;;;;;;;8.20;4.35;;;;;;;;;;4347649;32;20210;-83
2022/07/19 04:51:15;;;;;;;8.98;4.20;;;;;;;;;;4360765;32;20276;-82
2022/07/19 04:53:41;;;;;;;12.65;4.05;;;;;;;;;;4360813;32;20199;-81
2022/07/19 04:56:07;;;;;;;13.88;2.75;;;;;;;;;;4360695;32;20234;-81
2022/07/19 04:58:33;;;;;;;5.25;3.33;;;;;;;;;;4360760;32;20210;-84
2022/07/19 05:01:01;;;;;;;7.00;3.85;;;;;;;;;;4347403;32;20649;-80
2022/07/19 05:03:27;;;;;;;8.73;3.95;;;;;;;;;;4360656;32;20560;-87
2022/07/19 05:05:56;;;;;;;9.15;4.57;;;;;;;;;;4347173;32;20246;-80
2022/07/19 05:08:22;;;;;;;12.98;4.35;;;;;;;;;;4361149;32;20576;-82
2022/07/19 05:10:49;;;;;;;10.27;3.30;;;;;;;;;;4348412;32;20603;-82
2022/07/19 05:13:16;;;;;;;9.68;4.60;;;;;;;;;;4361047;32;20608;-80
2022/07/19 05:15:43;;;;;;;9.60;4.10;;;;;;;;;;4348220;32;20568;-81
2022/07/19 05:18:10;;;;;;;7.37;3.60;;;;;;;;;;4361035;32;20225;-81
2022/07/19 05:20:36;;;;;;;12.25;3.65;;;;;;;;;;4346890;32;20646;-80
2022/07/19 05:23:02;;;;;;;4.05;3.15;;;;;;;;;;4360870;32;20674;-80
2022/07/19 05:25:28;;;;;;;6.97;3.53;;;;;;;;;;4360448;32;20250;-80
2022/07/19 05:27:55;;;;;;;9.23;3.50;;;;;;;;;;4360346;32;20202;-80
2022/07/19 05:30:21;;;;;;;6.95;3.08;;;;;;;;;;4360159;32;20540;-81
2022/07/19 05:32:47;;;;;;;12.18;4.72;;;;;;;;;;4360391;32;20572;-80
2022/07/19 05:35:12;;;;;;;4.82;3.33;;;;;;;;;;4347075;32;20230;-80
2022/07/19 05:37:38;;;;;;;6.10;3.55;;;;;;;;;;4360841;32;20420;-81
2022/07/19 05:40:05;;;;;;;6.78;3.30;;;;;;;;;;4360259;32;20230;-82
2022/07/19 05:42:30;;;;;;;5.65;3.50;;;;;;;;;;4360343;32;20616;-82
2022/07/19 05:44:56;;;;;;;6.90;3.97;;;;;;;;;;4360241;32;20248;-82
2022/07/19 05:47:22;;;;;;;10.80;3.33;;;;;;;;;;4359495;32;20277;-83
2022/07/19 05:49:48;;;;;;;9.65;3.22;;;;;;;;;;4346908;32;20241;-80
2022/07/19 05:52:14;;;;;;;7.15;3.78;;;;;;;;;;4360253;32;20230;-80
2022/07/19 05:54:40;;;;;;;5.05;3.05;;;;;;;;;;4360370;32;20609;-81
2022/07/19 05:57:06;;;;;;;8.85;3.10;;;;;;;;;;4359363;32;20222;-81
2022/07/19 05:59:35;;;;;;;6.18;3.37;;;;;;;;;;4360145;32;20328;-80
2022/07/19 06:02:02;;;;;;;6.45;2.87;;;;;;;;;;4360056;32;20604;-81
2022/07/19 06:04:27;;;;;;;7.32;3.20;;;;;;;;;;4359803;32;20678;-81
2022/07/19 06:06:53;;;;;;;4.62;3.28;;;;;;;;;;4360347;32;20202;-79
2022/07/19 06:09:19;;;;;;;4.25;2.92;;;;;;;;;;4359912;32;20292;-79
2022/07/19 06:11:45;;;;;;;5.28;3.40;;;;;;;;;;4360199;32;20202;-80
2022/07/19 06:14:11;;;;;;;7.80;2.95;;;;;;;;;;4359961;32;20227;-79
2022/07/19 06:16:40;;;;;;;7.20;4.62;;;;;;;;;;4359815;32;20580;-79
2022/07/19 06:19:07;;;;;;;7.90;4.05;;;;;;;;;;4359759;32;20681;-80
2022/07/19 06:21:33;;;;;;;6.53;3.80;;;;;;;;;;4359712;32;20672;-79
2022/07/19 06:23:59;;;;;;;9.18;3.40;;;;;;;;;;4345894;32;20723;-80
2022/07/19 06:26:26;;;;;;;4.95;3.55;;;;;;;;;;4359580;32;20609;-84
2022/07/19 06:28:53;;;;;;;7.65;2.85;;;;;;;;;;4359459;32;20685;-84
2022/07/19 06:31:20;;;;;;;5.10;2.78;;;;;;;;;;4346453;32;20596;-82
2022/07/19 06:33:48;;;;;;;5.72;3.15;;;;;;;;;;4359436;32;20587;-86
2022/07/19 06:36:15;;;;;;;6.30;3.40;;;;;;;;;;4359530;32;20599;-82
2022/07/19 06:38:42;;;;;;;5.35;3.00;;;;;;;;;;4359640;32;20587;-85
2022/07/19 06:41:08;;;;;;;15.30;4.15;;;;;;;;;;4359621;32;20628;-86
2022/07/19 06:43:34;;;;;;;11.65;3.50;;;;;;;;;;4360093;32;20646;-87
2022/07/19 06:46:00;;;;;;;9.70;2.90;;;;;;;;;;4360017;32;20497;-84
2022/07/19 06:48:26;;;;;;;7.18;3.20;;;;;;;;;;4360587;32;20630;-86
2022/07/19 06:50:51;;;;;;;6.57;3.65;;;;;;;;;;4346842;32;20234;-89
2022/07/19 06:53:17;;;;;;;7.85;3.10;;;;;;;;;;4347184;32;20227;-88
2022/07/19 06:55:43;;;;;;;7.28;3.62;;;;;;;;;;4360326;32;20548;-87
2022/07/19 06:58:09;;;;;;;12.48;3.60;;;;;;;;;;4358986;32;20296;-87
2022/07/19 07:00:35;;;;;;;7.95;3.78;;;;;;;;;;4359291;32;20195;-85
2022/07/19 07:03:01;;;;;;;9.20;3.12;;;;;;;;;;4359120;32;20407;-83
2022/07/19 07:05:26;;;;;;;5.40;3.67;;;;;;;;;;4359238;32;20209;-84
2022/07/19 07:07:54;;;;;;;6.07;2.92;;;;;;;;;;4346699;32;20240;-84
2022/07/19 07:10:20;;;;;;;6.18;3.08;;;;;;;;;;4358947;32;20692;-81
2022/07/19 07:12:46;;;;;;;13.43;3.70;;;;;;;;;;4359107;32;20598;-79
2022/07/19 07:15:13;;;;;;;4.65;3.17;;;;;;;;;;4359033;32;20198;-81
2022/07/19 07:17:39;;;;;;;4.87;3.58;;;;;;;;;;4345544;32;20619;-80
2022/07/19 07:20:06;;;;;;;10.93;2.92;;;;;;;;;;4359103;32;20218;-78
2022/07/19 07:22:33;;;;;;;6.07;2.95;;;;;;;;;;4359139;32;20663;-79
2022/07/19 07:24:59;;;;;;;4.45;3.37;;;;;;;;;;4358911;32;20676;-78
2022/07/19 07:27:25;;;;;;;5.25;3.17;;;;;;;;;;4358633;33;20290;-79
2022/07/19 07:29:51;;;;;;;4.70;3.25;;;;;;;;;;4358718;33;20249;-77
2022/07/19 07:32:18;;;;;;;5.45;3.25;;;;;;;;;;4358686;33;20249;-77
2022/07/19 07:34:45;;;;;;;10.02;3.33;;;;;;;;;;4358851;33;20588;-80
2022/07/19 07:37:11;;;;;;;8.85;4.05;;;;;;;;;;4358759;33;20651;-80
2022/07/19 07:39:38;;;;;;;5.75;3.28;;;;;;;;;;4358722;33;20533;-80
2022/07/19 07:42:04;;;;;;;6.00;3.72;;;;;;;;;;4359802;33;20576;-90
2022/07/19 07:44:30;;;;;;;4.70;3.60;;;;;;;;;;4360291;33;20642;-81
2022/07/19 07:46:56;;;;;;;6.35;3.62;;;;;;;;;;4345170;33;20667;-81
2022/07/19 07:49:22;;;;;;;6.47;3.90;;;;;;;;;;4358816;33;20297;-81
2022/07/19 07:51:48;;;;;;;8.10;5.20;;;;;;;;;;4358533;33;20227;-81
2022/07/19 07:54:14;;;;;;;7.60;4.28;;;;;;;;;;4358757;33;20199;-81
2022/07/19 07:56:40;;;;;;;4.85;3.72;;;;;;;;;;4359063;33;20714;-81
2022/07/19 07:59:06;;;;;;;7.20;4.18;;;;;;;;;;4359082;33;20646;-79
2022/07/19 08:01:32;;;;;;;8.38;4.53;;;;;;;;;;4358799;33;20218;-79
2022/07/19 08:03:57;;;;;;;9.48;4.68;;;;;;;;;;4358699;33;20222;-79
2022/07/19 08:06:23;;;;;;;6.90;5.28;;;;;;;;;;4358763;33;20234;-78
2022/07/19 08:08:49;;;;;;;7.57;4.93;;;;;;;;;;4358667;33;20274;-77
2022/07/19 08:11:15;;;;;;;9.50;4.93;;;;;;;;;;4360304;32;20234;-77
2022/07/19 08:13:41;;;;;;;11.90;5.10;;;;;;;;;;4361977;32;20217;-78
2022/07/19 08:16:07;;;;;;;14.27;4.28;;;;;;;;;;4361785;32;20295;-81
2022/07/19 08:18:33;;;;;;;8.88;4.40;;;;;;;;;;4361465;32;20600;-80
2022/07/19 08:20:59;;;;;;;5.85;3.90;;;;;;;;;;4361357;32;20798;-81
2022/07/19 08:23:25;;;;;;;11.85;4.32;;;;;;;;;;4360777;32;20602;-79
2022/07/19 08:25:53;;;;;;;5.68;4.03;;;;;;;;;;4360885;32;20634;-80
2022/07/19 08:28:19;;;;;;;8.73;4.72;;;;;;;;;;4347432;32;20731;-80
2022/07/19 08:30:45;;;;;;;6.30;3.85;;;;;;;;;;4348142;32;20221;-79
2022/07/19 08:33:10;;;;;;;5.60;3.53;;;;;;;;;;4361331;32;20225;-79
2022/07/19 08:35:36;;;;;;;5.82;3.55;;;;;;;;;;4359816;32;20249;-80
2022/07/19 08:38:02;;;;;;;5.37;3.42;;;;;;;;;;4347357;32;20265;-79
2022/07/19 08:40:32;;;;;;;7.80;3.95;;;;;;;;;;4360802;32;20706;-78
2022/07/19 08:42:58;;;;;;;5.78;3.30;;;;;;;;;;4360671;32;20650;-80
2022/07/19 08:45:25;;;;;;;8.75;3.58;;;;;;;;;;4360998;32;20202;-79
2022/07/19 08:47:51;;;;;;;4.95;2.78;;;;;;;;;;4360627;32;20729;-78
2022/07/19 08:50:17;;;;;;;3.90;3.15;;;;;;;;;;4361026;32;20595;-79
2022/07/19 08:52:43;;;;;;;7.95;2.85;;;;;;;;;;4360717;32;20332;-80
2022/07/19 08:55:10;;;;;;;10.90;3.45;;;;;;;;;;4360742;32;20295;-78
2022/07/19 09:00:19;;;;;;;5.68;3.03;;;;;;;;;;4360872;32;20285;-79
2022/07/19 09:02:59;;;;;;;7.32;3.42;;;;;;;;;;4360570;32;20571;-78
2022/07/19 09:05:27;;;;;;;4.25;3.12;;;;;;;;;;4361016;32;20182;-78
2022/07/19 09:08:16;;;;;;;4.05;2.42;;;;;;;;;;4360821;32;20675;-80
2022/07/19 09:11:14;;;;;;;7.35;2.55;;;;;;;;;;4361094;32;20618;-80
2022/07/19 09:13:34;;;;;;;3.03;2.72;;;;;;;;;;4360894;32;20280;-80
2022/07/19 09:16:00;;;;;;;7.62;3.97;;;;;;;;;;4360489;32;20581;-78
2022/07/19 09:18:29;;;;;;;3.47;2.42;;;;;;;;;;4360562;32;20584;-79
2022/07/19 09:20:57;;;;;;;3.42;2.78;;;;;;;;;;4360087;32;20592;-81
2022/07/19 09:23:23;;;;;;;3.45;2.30;;;;;;;;;;4360361;32;20552;-79
2022/07/19 09:25:52;;;;;;;12.68;2.62;;;;;;;;;;4360198;32;20647;-80
2022/07/19 09:28:19;;;;;;;4.68;2.92;;;;;;;;;;4360080;32;20638;-79
2022/07/19 09:30:55;;;;;;;4.20;2.78;;;;;;;;;;4360284;32;20501;-78
2022/07/19 09:33:29;;;;;;;3.37;2.17;;;;;;;;;;4360540;32;20584;-81
2022/07/19 09:36:12;;;;;;;7.68;2.10;;;;;;;;;;4360479;32;20634;-81
2022/07/19 09:38:43;;;;;;;8.15;2.65;;;;;;;;;;4359063;32;20572;-80
2022/07/19 09:41:11;;;;;;;2.95;2.20;;;;;;;;;;4348173;32;20544;-80
2022/07/19 09:44:05;;;;;;;12.98;2.62;;;;;;;;;;4375287;32;20190;-79
2022/07/19 09:46:38;;;;;;;3.55;2.30;;;;;;;;;;4376459;32;20189;-81
2022/07/19 09:49:05;;;;;;;5.62;2.50;;;;;;;;;;4412501;27;20210;-80
2022/07/19 09:51:35;;;;;;;2.95;2.15;;;;;;;;;;4393582;32;20209;-80
2022/07/19 09:54:27;;;;;;;2.17;1.70;;;;;;;;;;4384711;32;20657;-80
2022/07/19 09:56:54;;;;;;;3.75;2.15;;;;;;;;;;4361440;32;20618;-81
2022/07/19 09:59:22;;;;;;;5.28;2.15;;;;;;;;;;4373623;32;20632;-81
2022/07/19 10:01:51;;;;;;;4.18;2.45;;;;;;;;;;4372994;32;20686;-78
2022/07/19 10:04:20;;;;;;;4.25;2.20;;;;;;;;;;4361637;32;20614;-80
2022/07/19 10:06:48;;;;;;;2.25;1.87;;;;;;;;;;4374380;32;20568;-82
2022/07/19 10:09:17;;;;;;;9.27;2.60;;;;;;;;;;4361347;32;20342;-81
2022/07/19 10:11:43;;;;;;;2.87;2.25;;;;;;;;;;4374146;32;20635;-82
2022/07/19 10:14:10;;;;;;;2.25;2.05;;;;;;;;;;4373683;32;20748;-79
2022/07/19 10:17:06;;;;;;;6.70;2.75;;;;;;;;;;4361088;32;20563;-81
2022/07/19 10:19:43;;;;;;;8.60;2.47;;;;;;;;;;4350383;32;20753;-80
2022/07/19 10:22:13;;;;;;;2.20;1.58;;;;;;;;;;4372623;32;20585;-81
2022/07/19 10:24:53;;;;;;;2.58;2.08;;;;;;;;;;4372437;32;20523;-82
2022/07/19 10:27:43;;;;;;;4.32;2.33;;;;;;;;;;4372367;32;20607;-81
2022/07/19 10:30:11;;;;;;;4.65;2.55;;;;;;;;;;4372558;32;20612;-81
2022/07/19 10:32:45;;;;;;;11.18;2.12;;;;;;;;;;4372366;32;20583;-78
2022/07/19 10:35:26;;;;;;;3.37;1.60;;;;;;;;;;4372663;32;20648;-81
2022/07/19 10:38:01;;;;;;;4.70;1.85;;;;;;;;;;4372189;32;20756;-80
2022/07/19 10:40:58;;;;;;;12.68;2.12;;;;;;;;;;4378828;32;20524;-81
2022/07/19 10:43:28;;;;;;;4.07;2.58;;;;;;;;;;4385720;32;20745;-81
2022/07/19 10:45:56;;;;;;;3.95;2.05;;;;;;;;;;4375918;32;20562;-81
2022/07/19 10:48:45;;;;;;;5.32;2.15;;;;;;;;;;4389493;32;20694;-80
2022/07/19 10:51:34;;;;;;;4.82;1.95;;;;;;;;;;4375921;32;20574;-82
2022/07/19 10:54:06;;;;;;;7.93;2.45;;;;;;;;;;4389468;32;20635;-79
2022/07/19 10:56:37;;;;;;;6.28;1.95;;;;;;;;;;4389103;32;20694;-79
2022/07/19 10:59:07;;;;;;;5.12;2.05;;;;;;;;;;4389065;32;20680;-79
2022/07/19 11:01:36;;;;;;;9.50;2.37;;;;;;;;;;4389063;32;20618;-79
2022/07/19 11:04:25;;;;;;;3.58;1.83;;;;;;;;;;4389506;32;20713;-80
2022/07/19 11:07:09;;;;;;;4.28;1.83;;;;;;;;;;4389230;32;20837;-80
2022/07/19 11:09:49;;;;;;;4.30;1.65;;;;;;;;;;4389120;32;20550;-79
2022/07/19 11:12:44;;;;;;;12.88;2.03;;;;;;;;;;4389140;32;20634;-79
2022/07/19 11:15:10;;;;;;;3.97;1.98;;;;;;;;;;4388014;32;20602;-79
2022/07/19 11:17:36;;;;;;;9.43;1.90;;;;;;;;;;4389281;32;20457;-79
2022/07/19 11:20:09;;;;;;;5.47;2.72;;;;;;;;;;4389433;32;20319;-79
2022/07/19 11:22:39;;;;;;;2.55;1.98;;;;;;;;;;4386284;32;20634;-79
2022/07/19 11:25:06;;;;;;;6.70;1.85;;;;;;;;;;4388499;32;20713;-81
2022/07/19 11:27:33;;;;;;;2.83;1.60;;;;;;;;;;4388090;32;20715;-79
2022/07/19 11:30:02;;;;;;;3.00;1.75;;;;;;;;;;4388100;32;20685;-79
2022/07/19 11:32:28;;;;;;;2.92;2.17;;;;;;;;;;4388090;32;20566;-78
2022/07/19 11:34:59;;;;;;;1.83;1.40;;;;;;;;;;4389110;32;20647;-78
2022/07/19 11:37:39;;;;;;;3.35;2.00;;;;;;;;;;4389114;32;20590;-79
2022/07/19 11:40:06;;;;;;;3.22;1.90;;;;;;;;;;4388930;32;20630;-79
2022/07/19 11:42:44;;;;;;;2.45;1.83;;;;;;;;;;4389087;32;20752;-78
2022/07/19 11:45:24;;;;;;;2.92;2.03;;;;;;;;;;4390785;32;20529;-80
2022/07/19 11:47:57;;;;;;;1.98;1.58;;;;;;;;;;4378818;32;20631;-79
2022/07/19 11:50:27;;;;;;;2.90;1.80;;;;;;;;;;4391874;32;20619;-80
2022/07/19 11:52:55;;;;;;;4.72;2.30;;;;;;;;;;4378227;32;20524;-80
2022/07/19 11:55:23;;;;;;;3.92;1.98;;;;;;;;;;4392221;32;20756;-79
2022/07/19 11:57:50;;;;;;;2.45;1.77;;;;;;;;;;4378644;32;20559;-81
2022/07/19 12:00:17;;;;;;;6.03;1.80;;;;;;;;;;4391643;32;20566;-80
2022/07/19 12:03:03;;;;;;;2.97;1.70;;;;;;;;;;4391874;32;20637;-80
2022/07/19 12:05:37;;;;;;;5.10;1.70;;;;;;;;;;4391707;32;20677;-80
2022/07/19 12:08:06;;;;;;;2.10;1.90;;;;;;;;;;4391585;32;20594;-80
2022/07/19 12:10:53;;;;;;;9.13;2.72;;;;;;;;;;4391649;32;20639;-80
2022/07/19 12:13:35;;;;;;;2.45;2.10;;;;;;;;;;4391620;32;20668;-80
2022/07/19 12:16:12;;;;;;;2.62;1.92;;;;;;;;;;4391770;32;20635;-81
2022/07/19 12:18:49;;;;;;;2.92;2.10;;;;;;;;;;4392072;32;20656;-81
2022/07/19 12:21:25;;;;;;;3.92;2.25;;;;;;;;;;4391863;32;20538;-81
2022/07/19 12:24:23;;;;;;;3.12;2.55;;;;;;;;;;4391664;32;20676;-82
2022/07/19 12:26:57;;;;;;;3.62;2.10;;;;;;;;;;4391727;32;20612;-79
2022/07/19 12:29:25;;;;;;;3.92;2.55;;;;;;;;;;4391160;32;20692;-82
2022/07/19 12:31:57;;;;;;;4.75;2.33;;;;;;;;;;4391620;32;20563;-81
2022/07/19 12:34:24;;;;;;;7.28;2.28;;;;;;;;;;4377744;32;20590;-81
2022/07/19 12:36:50;;;;;;;5.57;1.90;;;;;;;;;;4392098;32;20599;-81
2022/07/19 12:39:22;;;;;;;2.83;2.12;;;;;;;;;;4392143;32;20712;-81
2022/07/19 12:42:05;;;;;;;3.80;2.28;;;;;;;;;;4391950;32;20550;-81
2022/07/19 12:44:34;;;;;;;3.72;2.30;;;;;;;;;;4391525;32;20655;-80
2022/07/19 12:47:00;;;;;;;5.12;2.35;;;;;;;;;;4377678;32;20594;-82
2022/07/19 12:49:40;;;;;;;4.10;2.53;;;;;;;;;;4390992;32;20662;-83
2022/07/19 12:52:06;;;;;;;5.20;2.60;;;;;;;;;;4391469;32;20597;-80
2022/07/19 12:54:31;;;;;;;4.20;2.03;;;;;;;;;;4391274;32;20289;-81
2022/07/19 12:56:57;;;;;;;3.65;2.35;;;;;;;;;;4390904;32;20194;-83
2022/07/19 12:59:41;;;;;;;4.57;2.47;;;;;;;;;;4391075;32;20213;-83
2022/07/19 13:02:14;;;;;;;3.83;2.25;;;;;;;;;;4391476;32;20610;-84
2022/07/19 13:04:41;;;;;;;3.80;2.60;;;;;;;;;;4391471;32;20574;-82
2022/07/19 13:07:09;;;;;;;4.07;2.10;;;;;;;;;;4391476;32;20596;-82
2022/07/19 13:09:36;;;;;;;7.62;2.40;;;;;;;;;;4391043;32;20378;-84
2022/07/19 13:12:05;;;;;;;36.03;15.55;;;;;;;;;;4377590;32;20685;-86
2022/07/19 13:14:32;;;;;;;8.55;2.78;;;;;;;;;;4391402;32;20690;-83
2022/07/19 13:16:58;;;;;;;9.20;3.15;;;;;;;;;;4391354;32;20611;-84
2022/07/19 13:19:24;;;;;;;7.12;2.95;;;;;;;;;;4390163;32;20295;-81
2022/07/19 13:21:52;;;;;;;9.30;4.18;;;;;;;;;;4390839;32;20736;-82
2022/07/19 13:24:18;;;;;;;4.07;2.28;;;;;;;;;;4391129;32;20592;-83
2022/07/19 13:26:44;;;;;;;16.35;3.90;;;;;;;;;;4390740;32;20309;-83
2022/07/19 13:29:09;;;;;;;6.68;2.12;;;;;;;;;;4390922;32;20209;-84
2022/07/19 13:31:36;;;;;;;6.87;2.30;;;;;;;;;;4390560;32;20221;-80
2022/07/19 13:34:03;;;;;;;2.97;2.22;;;;;;;;;;4390490;32;20600;-81
2022/07/19 13:36:28;;;;;;;8.13;1.80;;;;;;;;;;4376681;32;20524;-81
2022/07/19 13:38:54;;;;;;;3.53;2.30;;;;;;;;;;4390390;32;20233;-82
2022/07/19 13:41:20;;;;;;;3.70;1.83;;;;;;;;;;4390552;32;20240;-80
2022/07/19 13:43:46;;;;;;;3.28;2.28;;;;;;;;;;4390142;32;20283;-83
2022/07/19 13:46:12;;;;;;;4.30;2.58;;;;;;;;;;4390035;32;20266;-84
2022/07/19 13:48:39;;;;;;;8.35;3.08;;;;;;;;;;4389838;32;20541;-83
2022/07/19 13:51:07;;;;;;;7.65;2.50;;;;;;;;;;4376294;32;20528;-82
2022/07/19 13:53:33;;;;;;;2.45;2.08;;;;;;;;;;4390449;32;20641;-82
2022/07/19 13:55:58;;;;;;;5.78;2.55;;;;;;;;;;4390405;32;20469;-81
2022/07/19 13:58:27;;;;;;;2.15;1.73;;;;;;;;;;4389664;32;20282;-81
2022/07/19 14:00:52;;;;;;;3.60;1.50;;;;;;;;;;4390595;32;20685;-82
2022/07/19 14:03:19;;;;;;;3.87;2.17;;;;;;;;;;4390270;32;20222;-83
2022/07/19 14:05:48;;;;;;;8.73;1.73;;;;;;;;;;4390262;32;20611;-84
2022/07/19 14:08:15;;;;;;;7.10;2.00;;;;;;;;;;4389187;32;20676;-81
2022/07/19 14:10:41;;;;;;;2.60;1.60;;;;;;;;;;4390085;32;20614;-81
2022/07/19 14:13:07;;;;;;;3.15;1.87;;;;;;;;;;4390430;32;20708;-83
2022/07/19 14:15:33;;;;;;;2.92;1.98;;;;;;;;;;4389970;32;20591;-82
2022/07/19 14:18:00;;;;;;;5.37;1.87;;;;;;;;;;4390252;32;20186;-83
2022/07/19 14:20:26;;;;;;;2.67;1.58;;;;;;;;;;4390614;32;20527;-81
2022/07/19 14:22:52;;;;;;;3.60;2.08;;;;;;;;;;4390517;32;20741;-80
2022/07/19 14:25:19;;;;;;;1.65;1.12;;;;;;;;;;4391030;32;20543;-84
2022/07/19 14:28:29;;;;;;;2.65;1.90;;;;;;;;;;4438434;32;20244;-95
2022/07/19 14:30:54;;;;;;;3.15;1.62;;;;;;;;;;4407725;32;20217;-94
2022/07/19 14:33:26;;;;;;;2.87;1.42;;;;;;;;;;4409642;32;20535;-96
2022/07/19 14:35:56;;;;;;;6.35;2.00;;;;;;;;;;4410456;32;20217;-96
2022/07/19 14:38:24;;;;;;;3.58;2.00;;;;;;;;;;4408736;32;20247;-96
2022/07/19 14:40:54;;;;;;;2.17;1.37;;;;;;;;;;4408812;32;20285;-95
2022/07/19 14:43:43;;;;;;;2.60;2.00;;;;;;;;;;4409742;32;20634;-96
2022/07/19 14:46:15;;;;;;;3.60;1.65;;;;;;;;;;4379336;32;20241;-96
2022/07/19 14:48:43;;;;;;;3.78;1.92;;;;;;;;;;4378481;32;20299;-96
2022/07/19 14:51:16;;;;;;;4.60;1.80;;;;;;;;;;4378616;32;20236;-95